Time;durP1;ratioP1;P1;durP2;ratioP2;P2;SDS_P1;SDS_P2;PMS_P1;PMS_P2;Temp;Humidity;BMP_temperature;BMP_pressure;BME280_temperature;BME280_humidity;BME280_pressure;Samples;Min_cycle;Max_cycle;Signal;HPM_P1;HPM_P2
2023/03/16 00:02:13;;;;;;;12.27;3.33;;;;;;;-145.69;100.00;52543.41;5106229;28;20643;-79
2023/03/16 00:04:39;;;;;;;18.87;4.33;;;;;;;-145.69;100.00;52559.25;5114956;28;20204;-79
2023/03/16 00:07:08;;;;;;;11.07;4.20;;;;;;;-145.69;100.00;52539.44;5114248;28;20202;-79
2023/03/16 00:09:39;;;;;;;10.33;5.13;;;;;;;-145.69;100.00;52557.28;5114723;28;20766;-79
2023/03/16 00:12:14;;;;;;;8.13;3.73;;;;;;;-145.69;100.00;52549.34;5114799;28;20239;-79
2023/03/16 00:14:42;;;;;;;12.17;4.17;;;;;;;-145.69;100.00;52571.13;5114658;28;20197;-79
2023/03/16 00:17:09;;;;;;;10.47;4.37;;;;;;;-145.69;100.00;52541.44;5114570;28;20201;-79
2023/03/16 00:19:35;;;;;;;13.77;3.50;;;;;;;-145.69;100.00;52555.28;5113646;28;20197;-79
2023/03/16 00:22:02;;;;;;;13.27;3.90;;;;;;;-145.69;100.00;52519.63;5114288;28;20648;-81
2023/03/16 00:24:28;;;;;;;9.97;3.43;;;;;;;-145.69;100.00;52559.25;5114404;28;20668;-80
2023/03/16 00:26:55;;;;;;;9.33;4.20;;;;;;;-145.69;100.00;52535.47;5114173;28;20198;-79
2023/03/16 00:29:22;;;;;;;12.33;3.50;;;;;;;-145.69;100.00;52567.16;5114227;28;20225;-80
2023/03/16 00:31:49;;;;;;;11.83;3.43;;;;;;;-145.69;100.00;52586.97;5114145;28;20202;-80
2023/03/16 00:34:15;;;;;;;9.70;3.50;;;;;;;-145.69;100.00;52533.50;5114292;28;20730;-79
2023/03/16 00:36:42;;;;;;;7.30;4.00;;;;;;;-145.69;100.00;52527.56;5114335;28;20197;-79
2023/03/16 00:39:10;;;;;;;7.20;3.20;;;;;;;-145.69;100.00;52555.28;5111102;28;20198;-80
2023/03/16 00:41:37;;;;;;;6.77;3.20;;;;;;;-145.69;100.00;52541.44;5114047;28;20226;-80
2023/03/16 00:44:04;;;;;;;8.70;3.60;;;;;;;-145.69;100.00;52537.47;5114092;28;20233;-79
2023/03/16 00:46:32;;;;;;;8.57;3.80;;;;;;;-145.69;100.00;52559.25;5114049;28;20197;-79
2023/03/16 00:48:58;;;;;;;8.23;3.80;;;;;;;-145.69;100.00;52537.47;5113972;28;20233;-80
2023/03/16 00:51:25;;;;;;;9.97;4.03;;;;;;;-145.69;100.00;52543.41;5095361;28;20716;-80
2023/03/16 00:53:52;;;;;;;10.07;4.37;;;;;;;-145.69;100.00;52549.34;5114035;28;20251;-79
2023/03/16 00:56:18;;;;;;;14.30;5.03;;;;;;;-145.69;100.00;52559.25;5113884;28;20230;-79
2023/03/16 00:58:45;;;;;;;12.07;4.53;;;;;;;-145.69;100.00;52541.44;5113821;28;20678;-78
2023/03/16 01:01:14;;;;;;;11.63;4.80;;;;;;;-145.69;100.00;52573.13;5113120;28;20208;-79
2023/03/16 01:03:42;;;;;;;8.50;4.33;;;;;;;-145.69;100.00;52561.22;5114044;28;20236;-79
2023/03/16 01:06:11;;;;;;;10.20;4.33;;;;;;;-145.69;100.00;52531.53;5113532;28;20200;-79
2023/03/16 01:08:39;;;;;;;17.00;4.80;;;;;;;-145.69;100.00;52559.25;5113674;28;20221;-80
2023/03/16 01:11:07;;;;;;;13.33;5.00;;;;;;;-145.69;100.00;52553.31;5113643;28;20541;-79
2023/03/16 01:13:34;;;;;;;8.60;4.57;;;;;;;-145.69;100.00;52541.44;5113606;28;20683;-80
2023/03/16 01:16:00;;;;;;;8.03;4.67;;;;;;;-145.69;100.00;52547.38;5112863;28;20194;-79
2023/03/16 01:18:27;;;;;;;14.20;4.47;;;;;;;-145.69;100.00;52561.22;5113460;28;20205;-79
2023/03/16 01:20:55;;;;;;;12.90;5.17;;;;;;;-145.69;100.00;52535.47;5113721;28;20197;-79
2023/03/16 01:23:22;;;;;;;12.37;5.03;;;;;;;-145.69;100.00;52555.28;5113250;28;20189;-79
2023/03/16 01:25:52;;;;;;;8.40;5.00;;;;;;;-145.69;100.00;52527.56;5112770;28;20197;-79
2023/03/16 01:28:19;;;;;;;11.43;5.57;;;;;;;-145.69;100.00;52545.38;5113391;28;20220;-79
2023/03/16 01:30:45;;;;;;;12.17;5.43;;;;;;;-145.69;100.00;52569.16;5112710;28;20643;-79
2023/03/16 01:33:12;;;;;;;10.10;5.60;;;;;;;-145.69;100.00;52563.22;5113158;28;20197;-80
2023/03/16 01:35:38;;;;;;;10.93;5.30;;;;;;;-145.69;100.00;52533.50;5112969;28;20713;-80
2023/03/16 01:38:06;;;;;;;12.57;5.10;;;;;;;-145.69;100.00;52535.47;5113310;28;20567;-79
2023/03/16 01:40:33;;;;;;;13.90;5.27;;;;;;;-145.69;100.00;52549.34;5112827;28;20204;-80
2023/03/16 01:43:01;;;;;;;13.17;6.00;;;;;;;-145.69;100.00;52543.41;5112986;28;20233;-79
2023/03/16 01:46:07;;;;;;;14.83;6.40;;;;;;;-145.69;100.00;52598.84;5113351;28;20194;-79
2023/03/16 01:48:37;;;;;;;18.33;6.70;;;;;;;-145.69;100.00;52533.50;5112787;28;20236;-79
2023/03/16 01:51:07;;;;;;;17.27;6.07;;;;;;;-145.69;100.00;52551.31;5113516;28;20212;-79
2023/03/16 01:53:35;;;;;;;13.80;6.30;;;;;;;-145.69;100.00;52547.38;5112902;28;20200;-79
2023/03/16 01:56:07;;;;;;;18.67;7.53;;;;;;;-145.69;100.00;52529.53;5113361;28;20197;-79
2023/03/16 01:58:35;;;;;;;23.53;8.47;;;;;;;-145.69;100.00;52561.22;5113048;28;20205;-79
2023/03/16 02:01:03;;;;;;;22.93;9.50;;;;;;;-145.69;100.00;52555.28;5112620;28;20225;-79
2023/03/16 02:03:33;;;;;;;17.37;8.37;;;;;;;-145.69;100.00;52583.00;5113132;28;20205;-79
2023/03/16 02:06:04;;;;;;;20.97;9.00;;;;;;;-145.69;100.00;52515.69;5112642;28;20197;-79
2023/03/16 02:08:32;;;;;;;23.40;9.50;;;;;;;-145.69;100.00;52543.41;5112956;28;20201;-79
2023/03/16 02:11:00;;;;;;;17.90;8.37;;;;;;;-145.69;100.00;52551.31;5112525;28;20678;-80
2023/03/16 02:13:28;;;;;;;17.83;8.53;;;;;;;-145.69;100.00;52559.25;5112683;28;20194;-79
2023/03/16 02:15:55;;;;;;;26.03;9.77;;;;;;;-145.69;100.00;52563.22;5112511;28;20198;-80
2023/03/16 02:18:22;;;;;;;21.63;8.63;;;;;;;-145.69;100.00;52543.41;5112440;28;20192;-79
2023/03/16 02:20:55;;;;;;;19.30;8.07;;;;;;;-145.69;100.00;52531.53;5112859;28;20202;-79
2023/03/16 02:23:25;;;;;;;24.00;8.17;;;;;;;-145.69;100.00;52535.47;5112927;28;20201;-80
2023/03/16 02:26:01;;;;;;;32.20;8.23;;;;;;;-145.69;100.00;52577.06;5112741;28;20197;-79
2023/03/16 02:28:35;;;;;;;19.17;7.67;;;;;;;-145.69;100.00;52571.13;5112646;28;20659;-79
2023/03/16 02:31:04;;;;;;;18.63;8.43;;;;;;;-145.69;100.00;52539.44;5112596;28;20200;-79
2023/03/16 02:33:33;;;;;;;22.63;8.23;;;;;;;-145.69;100.00;52523.59;5112870;28;20197;-79
2023/03/16 02:36:00;;;;;;;19.10;7.47;;;;;;;-145.69;100.00;52559.25;5112445;28;20670;-79
2023/03/16 02:38:26;;;;;;;20.53;8.17;;;;;;;-145.69;100.00;52569.16;5112071;28;20189;-79
2023/03/16 02:40:58;;;;;;;17.07;7.10;;;;;;;-145.69;100.00;52543.41;5101540;28;20213;-79
2023/03/16 02:43:28;;;;;;;16.97;7.33;;;;;;;-145.69;100.00;52585.00;5094732;28;20233;-79
2023/03/16 02:45:59;;;;;;;16.17;7.37;;;;;;;-145.69;100.00;52569.16;5095902;28;20673;-79
2023/03/16 02:48:35;;;;;;;18.47;7.47;;;;;;;-145.69;100.00;52511.72;5096184;28;20205;-80
2023/03/16 02:51:07;;;;;;;16.80;7.40;;;;;;;-145.69;100.00;52571.13;5110910;28;20197;-80
2023/03/16 02:53:33;;;;;;;22.07;8.07;;;;;;;-145.69;100.00;52535.47;5116275;28;20236;-80
2023/03/16 02:56:01;;;;;;;21.73;8.00;;;;;;;-145.69;100.00;52543.41;5116275;28;20609;-80
2023/03/16 02:58:29;;;;;;;19.57;7.23;;;;;;;-145.69;100.00;52541.44;5116389;28;20198;-80
2023/03/16 03:00:55;;;;;;;16.73;7.73;;;;;;;-145.69;100.00;52547.38;5116332;28;20292;-80
2023/03/16 03:03:22;;;;;;;16.93;7.73;;;;;;;-145.69;100.00;52539.44;5116236;28;20200;-80
2023/03/16 03:05:50;;;;;;;23.97;8.40;;;;;;;-145.69;100.00;52573.13;5116362;28;20204;-80
2023/03/16 03:08:19;;;;;;;16.87;8.07;;;;;;;-145.69;100.00;52541.44;5116157;28;20197;-80
2023/03/16 03:10:45;;;;;;;16.93;7.30;;;;;;;-145.69;100.00;52551.31;5095960;28;20320;-81
2023/03/16 03:13:12;;;;;;;19.57;7.70;;;;;;;-145.69;100.00;52547.38;5112396;28;20232;-80
2023/03/16 03:15:39;;;;;;;15.40;7.53;;;;;;;-145.69;100.00;52543.41;5116017;28;20201;-81
2023/03/16 03:18:08;;;;;;;18.90;7.77;;;;;;;-145.69;100.00;52598.84;5116409;28;20205;-81
2023/03/16 03:20:35;;;;;;;17.93;7.50;;;;;;;-145.69;100.00;52583.00;5116318;28;20201;-81
2023/03/16 03:23:04;;;;;;;21.03;7.73;;;;;;;-145.69;100.00;52539.44;5116170;28;20284;-81
2023/03/16 03:25:33;;;;;;;15.23;6.63;;;;;;;-145.69;100.00;52565.19;5116211;28;20240;-80
2023/03/16 03:28:00;;;;;;;13.10;6.20;;;;;;;-145.69;100.00;52563.22;5116101;28;20198;-80
2023/03/16 03:30:27;;;;;;;15.40;7.50;;;;;;;-145.69;100.00;52539.44;5115426;28;20221;-80
2023/03/16 03:32:54;;;;;;;20.97;7.83;;;;;;;-145.69;100.00;52539.44;5115584;28;20198;-80
2023/03/16 03:35:21;;;;;;;17.50;8.33;;;;;;;-145.69;100.00;52555.28;5115376;28;20284;-79
2023/03/16 03:37:49;;;;;;;17.47;8.17;;;;;;;-145.69;100.00;52590.94;5115530;28;20567;-80
2023/03/16 03:40:20;;;;;;;20.20;7.77;;;;;;;-145.69;100.00;52577.06;5115465;28;20560;-80
2023/03/16 03:42:47;;;;;;;20.83;8.20;;;;;;;-145.69;100.00;52529.53;5115394;28;20228;-80
2023/03/16 03:45:14;;;;;;;17.37;7.50;;;;;;;-145.69;100.00;52543.41;5115428;28;20670;-80
2023/03/16 03:47:42;;;;;;;16.70;7.47;;;;;;;-145.69;100.00;52557.28;5115792;28;20283;-81
2023/03/16 03:50:11;;;;;;;16.70;7.23;;;;;;;-145.69;100.00;52535.47;5115660;28;20247;-81
2023/03/16 03:52:37;;;;;;;13.83;5.97;;;;;;;-145.69;100.00;52557.28;5115656;28;20696;-80
2023/03/16 03:55:05;;;;;;;14.77;6.60;;;;;;;-145.69;100.00;52547.38;5115739;27;20208;-81
2023/03/16 03:57:37;;;;;;;18.27;6.37;;;;;;;-145.69;100.00;52541.44;5115353;28;20197;-81
2023/03/16 04:00:10;;;;;;;20.17;7.20;;;;;;;-145.69;100.00;52553.31;5115369;28;20204;-80
2023/03/16 04:02:36;;;;;;;15.40;6.87;;;;;;;-145.69;100.00;52553.31;5114611;28;20300;-81
2023/03/16 04:05:06;;;;;;;14.13;6.70;;;;;;;-145.69;100.00;52507.75;5115355;28;20204;-81
2023/03/16 04:07:32;;;;;;;12.80;6.40;;;;;;;-145.69;100.00;52555.28;5115101;28;20198;-81
2023/03/16 04:09:59;;;;;;;11.47;6.40;;;;;;;-145.69;100.00;52565.19;5114997;28;20225;-81
2023/03/16 04:12:27;;;;;;;14.47;7.07;;;;;;;-145.69;100.00;52557.28;5114826;28;20212;-80
2023/03/16 04:14:55;;;;;;;17.10;6.97;;;;;;;-145.69;100.00;52539.44;5115117;28;20262;-80
2023/03/16 04:17:22;;;;;;;16.63;6.83;;;;;;;-145.69;100.00;52565.19;5130490;27;20202;-80
2023/03/16 04:19:49;;;;;;;23.73;6.90;;;;;;;-145.69;100.00;52543.41;5114890;28;20246;-81
2023/03/16 04:22:16;;;;;;;13.77;5.90;;;;;;;-145.69;100.00;52547.38;5115003;28;20575;-81
2023/03/16 04:24:45;;;;;;;14.53;6.03;;;;;;;-145.69;100.00;52547.38;5114701;28;20610;-81
2023/03/16 04:27:12;;;;;;;11.43;5.83;;;;;;;-145.69;100.00;52598.84;5114838;28;20202;-81
2023/03/16 04:29:38;;;;;;;11.67;6.00;;;;;;;-145.69;100.00;52577.06;5114770;28;20221;-81
2023/03/16 04:32:10;;;;;;;11.57;5.13;;;;;;;-145.69;100.00;52569.16;5114298;28;20209;-81
2023/03/16 04:34:42;;;;;;;10.30;5.67;;;;;;;-145.69;100.00;52571.13;5114808;28;20246;-80
2023/03/16 04:37:09;;;;;;;12.33;5.53;;;;;;;-145.69;100.00;52561.22;5097394;28;20197;-81
2023/03/16 04:39:37;;;;;;;11.20;5.07;;;;;;;-145.69;100.00;52539.44;5114396;28;20688;-81
2023/03/16 04:42:05;;;;;;;12.20;4.67;;;;;;;-145.69;100.00;52551.31;5114172;28;20279;-81
2023/03/16 04:44:33;;;;;;;11.40;5.47;;;;;;;-145.69;100.00;52585.00;5113435;28;20861;-80
2023/03/16 04:47:00;;;;;;;8.17;4.70;;;;;;;-145.69;100.00;52565.19;5109896;28;20197;-80
2023/03/16 04:49:28;;;;;;;8.37;4.10;;;;;;;-145.69;100.00;52545.38;5114208;28;20208;-81
2023/03/16 04:51:54;;;;;;;6.47;4.10;;;;;;;-145.69;100.00;52545.38;5114118;28;20611;-81
2023/03/16 04:54:22;;;;;;;6.77;3.77;;;;;;;-145.69;100.00;52586.97;5114065;28;20193;-81
2023/03/16 04:56:51;;;;;;;7.70;3.87;;;;;;;-145.69;100.00;52571.13;5114600;28;20541;-81
2023/03/16 04:59:18;;;;;;;5.97;3.27;;;;;;;-145.69;100.00;52565.19;5114398;28;20250;-81
2023/03/16 05:01:46;;;;;;;11.67;4.10;;;;;;;-145.69;100.00;52571.13;5114393;28;20643;-80
2023/03/16 05:04:13;;;;;;;10.17;4.60;;;;;;;-145.69;100.00;52543.41;5113623;28;20291;-80
2023/03/16 05:06:41;;;;;;;6.33;3.37;;;;;;;-145.69;100.00;52527.56;5113142;28;20189;-80
2023/03/16 05:09:10;;;;;;;8.80;4.07;;;;;;;-145.69;100.00;52551.31;5099476;28;20190;-80
2023/03/16 05:11:37;;;;;;;6.47;3.87;;;;;;;-145.69;100.00;52602.81;5113783;28;20228;-80
2023/03/16 05:14:04;;;;;;;10.33;4.20;;;;;;;-145.69;100.00;52579.06;5113844;28;20262;-80
2023/03/16 05:16:30;;;;;;;11.17;3.83;;;;;;;-145.69;100.00;52571.13;5113318;28;20244;-80
2023/03/16 05:18:58;;;;;;;6.57;3.87;;;;;;;-145.69;100.00;52539.44;5113455;28;20248;-80
2023/03/16 05:21:25;;;;;;;6.97;3.90;;;;;;;-145.69;100.00;52567.16;5113567;28;20237;-80
2023/03/16 05:23:52;;;;;;;8.83;4.50;;;;;;;-145.69;100.00;52565.19;5113389;28;20193;-80
2023/03/16 05:26:19;;;;;;;10.97;4.80;;;;;;;-145.69;100.00;52573.13;5113524;28;20205;-80
2023/03/16 05:28:46;;;;;;;9.90;4.27;;;;;;;-145.69;100.00;52535.47;5113189;28;20208;-81
2023/03/16 05:31:14;;;;;;;11.30;4.43;;;;;;;-145.69;100.00;52583.00;5113286;28;20281;-81
2023/03/16 05:33:41;;;;;;;7.87;4.40;;;;;;;-145.69;100.00;52545.38;5113395;28;20201;-80
2023/03/16 05:36:08;;;;;;;11.33;4.70;;;;;;;-145.69;100.00;52543.41;5113190;28;20189;-80
2023/03/16 05:38:35;;;;;;;11.77;4.40;;;;;;;-145.69;100.00;52537.47;5113160;28;20284;-80
2023/03/16 05:41:04;;;;;;;10.37;5.27;;;;;;;-145.69;100.00;52588.97;5113074;28;20197;-80
2023/03/16 05:43:31;;;;;;;11.43;6.00;;;;;;;-145.69;100.00;52579.06;5113188;28;20750;-80
2023/03/16 05:45:59;;;;;;;12.40;5.40;;;;;;;-145.69;100.00;52561.22;5113245;28;20200;-80
2023/03/16 05:48:26;;;;;;;10.03;4.77;;;;;;;-145.69;100.00;52547.38;5113022;28;20211;-81
2023/03/16 05:50:53;;;;;;;12.10;5.20;;;;;;;-145.69;100.00;52567.16;5112581;28;20713;-81
2023/03/16 05:53:22;;;;;;;11.13;5.47;;;;;;;-145.69;100.00;52543.41;5112964;28;20200;-81
2023/03/16 05:55:52;;;;;;;8.90;5.13;;;;;;;-145.69;100.00;52579.06;5113548;28;20197;-81
2023/03/16 05:58:20;;;;;;;10.33;5.60;;;;;;;-145.69;100.00;52579.06;5112965;28;20197;-80
2023/03/16 06:00:47;;;;;;;10.07;5.33;;;;;;;-145.69;100.00;52559.25;5112926;28;20563;-81
2023/03/16 06:03:13;;;;;;;15.43;4.97;;;;;;;-145.69;100.00;52577.06;5113476;28;20205;-81
2023/03/16 06:05:40;;;;;;;12.10;5.53;;;;;;;-145.69;100.00;52590.94;5113241;28;20190;-81
2023/03/16 06:08:09;;;;;;;9.37;4.70;;;;;;;-145.69;100.00;52557.28;5113680;28;20292;-79
2023/03/16 06:10:35;;;;;;;10.90;5.57;;;;;;;-145.69;100.00;52598.84;5113021;28;20312;-81
2023/03/16 06:13:02;;;;;;;12.63;6.07;;;;;;;-145.69;100.00;52569.16;5114011;28;20201;-81
2023/03/16 06:15:30;;;;;;;12.37;5.37;;;;;;;-145.69;100.00;52588.97;5115212;27;20197;-83
2023/03/16 06:17:56;;;;;;;10.30;5.73;;;;;;;-145.69;100.00;52535.47;5117440;28;20201;-81
2023/03/16 06:20:25;;;;;;;13.03;5.30;;;;;;;-145.69;100.00;52575.09;5118933;28;20288;-81
2023/03/16 06:22:52;;;;;;;10.83;5.30;;;;;;;-145.69;100.00;52575.09;5118843;28;20232;-80
2023/03/16 06:25:18;;;;;;;12.30;5.67;;;;;;;-145.69;100.00;52561.22;5118465;28;20202;-81
2023/03/16 06:27:45;;;;;;;10.37;5.50;;;;;;;-145.69;100.00;52551.31;5119045;28;20193;-81
2023/03/16 06:30:14;;;;;;;17.47;5.83;;;;;;;-145.69;100.00;52573.13;5100773;28;20228;-81
2023/03/16 06:32:44;;;;;;;10.67;5.17;;;;;;;-145.69;100.00;52569.16;5118729;28;20193;-81
2023/03/16 06:35:11;;;;;;;15.17;5.50;;;;;;;-145.69;100.00;52555.28;5118756;28;20726;-81
2023/03/16 06:37:38;;;;;;;15.57;5.70;;;;;;;-145.69;100.00;52583.00;5120118;28;20212;-82
2023/03/16 06:40:06;;;;;;;17.77;5.60;;;;;;;-145.69;100.00;52555.28;5121009;28;20224;-82
2023/03/16 06:42:32;;;;;;;11.23;5.13;;;;;;;-145.69;100.00;52563.22;5121031;28;20251;-82
2023/03/16 06:44:59;;;;;;;9.73;3.60;;;;;;;-145.69;100.00;52537.47;5121746;28;20193;-82
2023/03/16 06:47:27;;;;;;;6.97;4.47;;;;;;;-145.69;100.00;52596.88;5112037;28;20209;-83
2023/03/16 06:49:58;;;;;;;12.80;5.10;;;;;;;-145.69;100.00;52557.28;5100387;28;20200;-82
2023/03/16 06:52:25;;;;;;;12.33;5.10;;;;;;;-145.69;100.00;52565.19;5099572;28;20198;-82
2023/03/16 06:54:51;;;;;;;10.03;4.57;;;;;;;-145.69;100.00;52571.13;5099069;28;20202;-82
2023/03/16 06:57:20;;;;;;;9.50;4.77;;;;;;;-145.69;100.00;52531.53;5099806;28;20209;-82
2023/03/16 06:59:49;;;;;;;10.20;4.23;;;;;;;-145.69;100.00;52559.25;5099400;28;20205;-82
2023/03/16 07:02:22;;;;;;;11.17;4.80;;;;;;;-145.69;100.00;52559.25;5117137;28;20246;-82
2023/03/16 07:04:49;;;;;;;10.33;4.27;;;;;;;-145.69;100.00;52541.44;5118859;28;20232;-82
2023/03/16 07:07:19;;;;;;;9.37;3.90;;;;;;;-145.69;100.00;52571.13;5119122;28;20200;-82
2023/03/16 07:09:46;;;;;;;6.37;3.20;;;;;;;-145.69;100.00;52565.19;5119347;28;20288;-82
2023/03/16 07:12:12;;;;;;;5.70;2.83;;;;;;;-145.69;100.00;52535.47;5118906;28;20221;-82
2023/03/16 07:14:40;;;;;;;7.17;2.90;;;;;;;-145.69;100.00;52545.38;5119161;28;20273;-83
2023/03/16 07:17:07;;;;;;;5.33;2.70;;;;;;;-145.69;100.00;52557.28;5118606;28;20202;-83
2023/03/16 07:19:36;;;;;;;5.87;3.00;;;;;;;-145.69;100.00;52527.56;5100804;28;20209;-83
2023/03/16 07:22:03;;;;;;;3.70;2.40;;;;;;;-145.69;100.00;52543.41;5119723;28;20208;-83
2023/03/16 07:24:31;;;;;;;4.20;2.60;;;;;;;-145.69;100.00;52533.50;5119881;28;20194;-82
2023/03/16 07:26:58;;;;;;;5.17;2.57;;;;;;;-145.69;100.00;52559.25;5120402;28;20237;-81
2023/03/16 07:29:24;;;;;;;7.03;2.57;;;;;;;-145.69;100.00;52575.09;5120278;28;20280;-82
2023/03/16 07:31:52;;;;;;;3.83;1.80;;;;;;;-145.69;100.00;52531.53;5119556;28;20579;-81
2023/03/16 07:34:19;;;;;;;5.57;2.30;;;;;;;-145.69;100.00;52495.88;5118295;28;20243;-80
2023/03/16 07:36:47;;;;;;;4.13;1.90;;;;;;;-145.69;100.00;52535.47;5116936;28;20609;-80
2023/03/16 07:39:16;;;;;;;3.40;1.93;;;;;;;-145.69;100.00;52523.59;5117060;28;20193;-80
2023/03/16 07:41:45;;;;;;;4.40;1.77;;;;;;;-145.69;100.00;52505.78;5119117;28;20256;-81
2023/03/16 07:44:13;;;;;;;4.13;1.57;;;;;;;-145.69;100.00;52539.44;5119679;28;20202;-80
2023/03/16 07:46:42;;;;;;;6.70;2.90;;;;;;;-145.69;100.00;52511.72;5119403;28;20286;-80
2023/03/16 07:49:11;;;;;;;3.10;1.83;;;;;;;-145.69;100.00;52511.72;5120033;28;20198;-80
2023/03/16 07:51:37;;;;;;;2.93;1.80;;;;;;;-145.69;100.00;52511.72;5115693;28;20235;-82
2023/03/16 07:54:04;;;;;;;2.90;1.80;;;;;;;-145.69;100.00;52521.63;5115391;28;20289;-82
2023/03/16 07:56:35;;;;;;;2.67;1.90;;;;;;;-145.69;100.00;52505.78;5116027;28;20292;-82
2023/03/16 07:59:03;;;;;;;3.83;1.60;;;;;;;-145.69;100.00;52499.84;5077121;28;20285;-82
2023/03/16 08:01:38;;;;;;;4.77;1.73;;;;;;;-145.69;100.00;52523.59;5103861;28;20193;-83
2023/03/16 08:04:04;;;;;;;2.93;1.77;;;;;;;-145.69;100.00;52503.81;5116306;28;20217;-83
2023/03/16 08:06:31;;;;;;;3.80;1.67;;;;;;;-145.69;100.00;52535.47;5119324;28;20236;-83
2023/03/16 08:08:58;;;;;;;2.00;1.47;;;;;;;-145.69;100.00;52515.69;5120110;28;20193;-83
2023/03/16 08:11:24;;;;;;;4.40;1.60;;;;;;;-145.69;100.00;52501.81;5117563;28;20250;-83
2023/03/16 08:13:55;;;;;;;3.50;1.60;;;;;;;-145.69;100.00;52539.44;5118816;28;20371;-83
2023/03/16 08:16:24;;;;;;;3.47;1.60;;;;;;;-145.69;100.00;52521.63;5120193;28;20198;-83
2023/03/16 08:18:53;;;;;;;4.93;2.00;;;;;;;-145.69;100.00;52531.53;5121300;28;20293;-83
2023/03/16 08:21:20;;;;;;;2.50;1.70;;;;;;;-145.69;100.00;52484.00;5121138;28;20201;-82
2023/03/16 08:23:49;;;;;;;4.27;1.80;;;;;;;-145.69;100.00;52507.75;5122565;28;20663;-83
2023/03/16 08:26:17;;;;;;;5.27;1.83;;;;;;;-145.69;100.00;52531.53;5121374;28;20560;-83
2023/03/16 08:28:45;;;;;;;5.23;1.93;;;;;;;-145.69;100.00;52515.69;5117665;28;20230;-84
2023/03/16 08:31:13;;;;;;;2.40;1.43;;;;;;;-145.69;93.65;52499.84;5116948;28;20703;-83
2023/03/16 08:33:42;;;;;;;2.37;1.40;;;;;;;-145.69;94.72;52519.63;5120730;28;20204;-83
2023/03/16 08:36:12;;;;;;;4.23;1.77;;;;;;;-145.69;98.61;52495.88;5118899;28;20267;-82
2023/03/16 08:38:39;;;;;;;2.90;1.80;;;;;;;-145.69;97.46;52495.88;5117922;28;20284;-83
2023/03/16 08:41:12;;;;;;;2.90;1.63;;;;;;;-145.69;98.51;52489.94;5108891;28;20201;-82
2023/03/16 08:43:48;;;;;;;2.73;1.80;;;;;;;-145.69;96.81;52507.75;5109888;28;20212;-81
2023/03/16 08:46:15;;;;;;;2.13;1.57;;;;;;;-145.69;95.33;52478.06;5114768;28;20189;-83
2023/03/16 08:48:47;;;;;;;2.50;1.67;;;;;;;-145.69;86.16;52527.56;5115206;28;20246;-83
2023/03/16 08:51:14;;;;;;;6.50;1.80;;;;;;;-145.69;97.25;52476.06;5114654;28;20217;-84
2023/03/16 08:53:44;;;;;;;5.10;1.70;;;;;;;-145.69;94.19;52507.75;5114192;28;20189;-84
2023/03/16 08:56:14;;;;;;;3.53;1.33;;;;;;;-145.69;85.09;52493.91;5114255;28;20201;-82
2023/03/16 08:58:44;;;;;;;5.03;1.50;;;;;;;-145.69;86.98;52476.06;5114994;28;20284;-83
2023/03/16 09:01:14;;;;;;;4.37;1.97;;;;;;;-145.69;95.10;52474.09;5115405;28;20208;-83
2023/03/16 09:03:41;;;;;;;2.70;1.40;;;;;;;-145.69;81.39;52484.00;5113787;28;20278;-83
2023/03/16 09:06:12;;;;;;;3.03;1.50;;;;;;;-145.69;83.46;52466.16;5113399;28;20197;-80
2023/03/16 09:08:39;;;;;;;3.87;1.57;;;;;;;-145.69;78.79;52464.19;5113853;28;20674;-80
2023/03/16 09:11:07;;;;;;;4.57;1.50;;;;;;;-145.69;86.44;52470.13;5113277;28;20220;-80
2023/03/16 09:13:35;;;;;;;4.80;1.57;;;;;;;-145.69;72.09;52484.00;5113990;28;20291;-80
2023/03/16 09:16:02;;;;;;;1.47;1.30;;;;;;;-145.69;73.43;52464.19;5114598;28;20193;-83
2023/03/16 09:18:29;;;;;;;5.50;1.57;;;;;;;-145.69;89.38;52478.06;5114814;28;20318;-83
2023/03/16 09:20:57;;;;;;;3.63;1.73;;;;;;;-145.69;78.58;52474.09;5114075;28;20211;-83
2023/03/16 09:23:26;;;;;;;3.37;1.50;;;;;;;-145.69;81.01;52472.13;5113328;28;20190;-83
2023/03/16 09:25:53;;;;;;;2.37;1.40;;;;;;;-145.69;75.02;52436.47;5114114;28;20556;-82
2023/03/16 09:28:20;;;;;;;2.43;1.57;;;;;;;-145.69;68.58;52491.91;5113746;28;20201;-82
2023/03/16 09:30:47;;;;;;;5.40;1.67;;;;;;;-145.69;66.38;52468.16;5114224;28;20201;-83
2023/03/16 09:33:13;;;;;;;2.83;1.73;;;;;;;-145.69;64.86;52440.44;5115191;28;20197;-82
2023/03/16 09:35:40;;;;;;;1.93;1.63;;;;;;;-145.69;65.32;52470.13;5114503;28;20537;-83
2023/03/16 09:38:07;;;;;;;4.27;1.40;;;;;;;-145.69;70.97;52460.22;5114275;28;20687;-83
2023/03/16 09:40:38;;;;;;;3.77;1.43;;;;;;;-145.69;67.47;52460.22;5115257;28;20194;-82
2023/03/16 09:43:22;;;;;;;3.60;1.40;;;;;;;-145.69;63.93;52444.38;5115018;28;20233;-82
2023/03/16 09:45:58;;;;;;;5.17;1.30;;;;;;;-145.69;62.96;52468.16;5100100;28;20200;-83
2023/03/16 09:48:28;;;;;;;3.60;1.33;;;;;;;-145.69;70.92;52505.78;5115098;28;20200;-81
2023/03/16 09:50:57;;;;;;;4.00;1.20;;;;;;;-145.69;62.26;52462.22;5095235;28;20664;-81
2023/03/16 09:53:28;;;;;;;3.80;1.70;;;;;;;-145.69;62.20;52472.13;5115747;28;20217;-81
2023/03/16 09:56:00;;;;;;;5.80;1.10;;;;;;;-145.69;59.65;52470.13;5107567;28;20636;-82
2023/03/16 09:58:27;;;;;;;2.20;1.40;;;;;;;-145.69;63.46;52464.19;5120541;28;20228;-82
2023/03/16 10:01:06;;;;;;;1.47;1.00;;;;;;;-145.69;63.77;52476.06;5121092;28;20199;-81
2023/03/16 10:03:55;;;;;;;5.73;1.30;;;;;;;-145.69;67.63;52448.34;5121514;28;20197;-81
2023/03/16 10:06:23;;;;;;;1.97;0.90;;;;;;;-145.69;60.08;52454.28;5120884;28;20201;-81
2023/03/16 10:08:54;;;;;;;5.80;1.50;;;;;;;-145.69;53.27;52442.41;5120555;28;20246;-82
2023/03/16 10:11:31;;;;;;;1.50;0.90;;;;;;;-145.69;51.22;52450.31;5122703;28;20308;-81
2023/03/16 10:14:05;;;;;;;2.07;1.17;;;;;;;-145.69;47.31;52468.16;5127604;27;20188;-81
2023/03/16 10:16:37;;;;;;;3.87;1.10;;;;;;;-145.69;50.34;52480.03;5131484;27;20193;-83
2023/03/16 10:19:12;;;;;;;1.13;0.93;;;;;;;-145.69;48.38;52452.31;5111499;28;20194;-82
2023/03/16 10:21:40;;;;;;;2.33;1.23;;;;;;;-145.69;51.61;52438.44;5117581;28;20288;-82
2023/03/16 10:24:19;;;;;;;1.13;0.90;;;;;;;-145.69;45.59;52452.31;5117298;28;20200;-82
2023/03/16 10:26:54;;;;;;;1.23;1.10;;;;;;;-145.69;50.89;52468.16;5117442;28;20563;-82
2023/03/16 10:29:21;;;;;;;1.20;0.90;;;;;;;-145.69;48.37;52452.31;5118818;28;20199;-82
2023/03/16 10:31:47;;;;;;;1.67;1.00;;;;;;;-145.69;49.56;52424.59;5118315;28;20217;-82
2023/03/16 10:34:14;;;;;;;1.60;1.20;;;;;;;-145.69;53.47;52454.28;5118227;28;20190;-82
2023/03/16 10:36:44;;;;;;;1.03;0.90;;;;;;;-145.69;48.13;52456.28;5118604;28;20201;-81
2023/03/16 10:39:12;;;;;;;2.03;0.90;;;;;;;-145.69;45.37;52450.31;5117767;28;20186;-82
2023/03/16 10:41:42;;;;;;;2.50;1.03;;;;;;;-145.69;49.33;52414.69;5118543;28;20229;-82
2023/03/16 10:44:13;;;;;;;2.63;0.90;;;;;;;-145.69;48.85;52434.47;5117521;27;20199;-82
2023/03/16 10:46:42;;;;;;;5.43;0.97;;;;;;;-145.69;49.00;52442.41;5128371;27;20200;-81
2023/03/16 10:49:21;;;;;;;4.43;1.10;;;;;;;-145.69;51.58;52424.59;5119102;28;20221;-82
2023/03/16 10:51:48;;;;;;;1.93;0.87;;;;;;;-145.69;46.59;52424.59;5119268;28;20686;-82
2023/03/16 10:54:18;;;;;;;1.87;0.97;;;;;;;-145.69;43.47;52412.69;5119853;28;20197;-82
2023/03/16 10:56:45;;;;;;;1.83;1.03;;;;;;;-145.69;46.85;52398.84;5119744;28;20200;-82
2023/03/16 10:59:28;;;;;;;2.07;1.20;;;;;;;-145.69;48.59;52424.59;5100626;28;20270;-82
2023/03/16 11:01:55;;;;;;;1.20;0.87;;;;;;;-145.69;47.17;52394.88;5119248;28;20288;-81
2023/03/16 11:04:21;;;;;;;2.77;1.27;;;;;;;-145.69;47.81;52424.59;5118779;28;20215;-82
2023/03/16 11:06:52;;;;;;;2.97;1.20;;;;;;;-145.69;46.78;52460.22;5124752;28;20201;-83
2023/03/16 11:09:23;;;;;;;2.47;0.87;;;;;;;-145.69;43.19;52485.97;5123280;28;20382;-82
2023/03/16 11:11:50;;;;;;;3.43;1.00;;;;;;;-145.69;42.97;52422.59;5119114;28;20228;-82
2023/03/16 11:14:28;;;;;;;1.53;0.90;;;;;;;-145.69;42.81;52416.66;5118974;28;20189;-81